Nearby METAR Reports

 

YCOM - Cooma Airport, NSW, AU
Distance from station: NE 158km
Updated: 16/12/2018 19:00
Clear
Clear
 Wind from NW
Wind: NW 20 km/h
Temperature: 20°C
Dew Point: 8°C
Humidity: 46%
Barometer: 1009 hPa
Clouds: Clear
Visibility: 10 km
2018/12/16 08:00 YCOM 160800Z AUTO 32011KT 9999 // NCD 20/08 Q1009
YMAY - Albury Airport, NSW, AU
Distance from station: NNW 165km
Updated: 16/12/2018 19:00
Mostly cloudy
Mostly cloudy
 Wind from SSE
Wind: SSE 11 km/h
Temperature: 23°C
Dew Point: 13°C
Humidity: 53%
Barometer: 1006 hPa
Clouds: Mostly cloudy
Visibility: 10 km
Cloud details: Partly cloudy 2134 m
Partly cloudy 2621 m
Mostly cloudy 3810 m
2018/12/16 08:00 YMAY 160800Z AUTO 15006KT 9999 // SCT070 SCT086 BKN125 23/13 Q1006
 
YWGT - Wangaratta Airport, Victoria, AU
Distance from station: NW 172km
Updated: 16/12/2018 19:00
Overcast
Overcast
 Wind from ESE
Wind: ESE 9 km/h
Temperature: 23°C
Dew Point: 11°C
Humidity: 47%
Barometer: 1007 hPa
Clouds: Overcast
Visibility: 10 km
Cloud details: Overcast 3505 m
2018/12/16 08:00 YWGT 160800Z AUTO 11005KT 9999 // OVC115 23/11 Q1007
YMER - Merimbula Airport, NSW, AU
Distance from station: ENE 192km
Updated: 16/12/2018 19:00
Partly cloudy
Partly cloudy
 Wind from calm
Wind: Calm
Temperature: 21°C
Dew Point: 19°C
Humidity: 88%
Barometer: 1004 hPa
Clouds: Partly cloudy
Visibility: 10 km
Cloud details: Partly cloudy 3353 m
2018/12/16 08:00 YMER 160800Z AUTO 00000KT 9999 // SCT110 21/19 Q1004
 
YSWG - Wagga Wagga Airport, NSW, AU
Distance from station: N 251km
Updated: 16/12/2018 19:00
Clear
Clear
 Wind from W
Wind: W 17 km/h
Temperature: 26°C
Dew Point: 10°C
Humidity: 37%
Barometer: 1006 hPa
Clouds: Clear
Visibility: 10 km
2018/12/16 08:00 YSWG 160800Z AUTO 28009KT 9999 // NCD 26/10 Q1006
YMEN - Essendon Airport, Victoria, AU
Distance from station: W 259km
Updated: 16/12/2018 19:11
Heavy rain, Mostly cloudy
Heavy rain, Mostly cloudy
 Wind from W
Wind: W 22 km/h
Temperature: 18°C
Dew Point: 17°C
Humidity: 94%
Barometer: 1006 hPa
Summary: Heavy rain
Clouds: Mostly cloudy
Visibility: 6 km
Cloud details: Partly cloudy 701 m
Mostly cloudy 1067 m
Mostly cloudy 1554 m
2018/12/16 08:11 YMEN 160811Z AUTO 27012KT 6000 +RA SCT023 BKN035 BKN051 18/17 Q1006
 
YSCB - Canberra Airport, ACT, AU
Distance from station: NNE 263km
Updated: 16/12/2018 19:00
Partly cloudy
Partly cloudy
 Wind from WNW
Wind: WNW 24 km/h
Temperature: 25°C
Dew Point: 9°C
Humidity: 36%
Barometer: 1008 hPa
Clouds: Partly cloudy
Visibility: 10 km
Cloud details: Partly cloudy 2438 m
2018/12/16 08:00 YSCB 160800Z AUTO 30013KT 9999 // SCT080 25/09 Q1008
YMML - Melbourne Airport, Victoria, AU
Distance from station: W 266km
Updated: 16/12/2018 19:00
Light rain, Showers, Mostly cloudy
Light rain, Showers, Mostly cloudy
 Wind from SW
Wind: SW 24 km/h
Temperature: 18°C
Dew Point: 15°C
Humidity: 83%
Barometer: 1006 hPa
Summary: Light rain, Showers
Clouds: Mostly cloudy
Visibility: 10 km
Cloud details: Few Clouds 610 m
Mostly cloudy 945 m
Mostly cloudy 2499 m
2018/12/16 08:00 YMML 160800Z 22013KT 9999 4000SE -SHRA FEW020 BKN031 BKN082 18/15 Q1006